<?xml version="1.0" encoding="UTF-8" standalone="no" ?>
<gpx xmlns="http://www.topografix.com/GPX/1/1" xmlns:xsi="http://www.w3.org/2001/XMLSchema-instance" xsi:schemaLocation="http://www.topografix.com/GPX/1/1 http://www.topografix.com/GPX/1/1/gpx.xsd" version="1.1" creator="VisuGPX - https://www.visugpx.com">
  <metadata>
    <name>luzech 6 descentes</name>
    <desc><![CDATA[parcours typé enduro avec de belles descentes]]></desc>
  </metadata>
  <trk>
    <name><![CDATA[2014-04-01-08-18-57]]></name>
    <trkseg>
      <trkpt lat="44.45159" lon="1.29298">
        <ele>276.764</ele>
        <time>2014-04-01T09:15:39Z</time>
      </trkpt>
      <trkpt lat="44.45176" lon="1.29306">
        <ele>275.524</ele>
        <time>2014-04-01T09:15:44Z</time>
      </trkpt>
      <trkpt lat="44.4521" lon="1.29323">
        <ele>274.855</ele>
        <time>2014-04-01T09:15:52Z</time>
      </trkpt>
      <trkpt lat="44.45253" lon="1.29344">
        <ele>275.196</ele>
        <time>2014-04-01T09:16:02Z</time>
      </trkpt>
      <trkpt lat="44.45291" lon="1.29364">
        <ele>277.237</ele>
        <time>2014-04-01T09:16:12Z</time>
      </trkpt>
      <trkpt lat="44.45315" lon="1.29387">
        <ele>276.895</ele>
        <time>2014-04-01T09:16:20Z</time>
      </trkpt>
      <trkpt lat="44.45334" lon="1.29423">
        <ele>275.295</ele>
        <time>2014-04-01T09:16:27Z</time>
      </trkpt>
      <trkpt lat="44.45342" lon="1.29434">
        <ele>274.504</ele>
        <time>2014-04-01T09:16:29Z</time>
      </trkpt>
      <trkpt lat="44.45368" lon="1.29453">
        <ele>271.133</ele>
        <time>2014-04-01T09:16:34Z</time>
      </trkpt>
      <trkpt lat="44.45395" lon="1.29451">
        <ele>268.442</ele>
        <time>2014-04-01T09:16:38Z</time>
      </trkpt>
      <trkpt lat="44.45455" lon="1.29432">
        <ele>263.323</ele>
        <time>2014-04-01T09:16:46Z</time>
      </trkpt>
      <trkpt lat="44.45507" lon="1.29415">
        <ele>258.065</ele>
        <time>2014-04-01T09:16:54Z</time>
      </trkpt>
      <trkpt lat="44.45553" lon="1.2941">
        <ele>253.555</ele>
        <time>2014-04-01T09:17:01Z</time>
      </trkpt>
      <trkpt lat="44.45589" lon="1.29417">
        <ele>249.945</ele>
        <time>2014-04-01T09:17:07Z</time>
      </trkpt>
      <trkpt lat="44.45603" lon="1.29423">
        <ele>249.065</ele>
        <time>2014-04-01T09:17:10Z</time>
      </trkpt>
      <trkpt lat="44.45617" lon="1.29414">
        <ele>249.318</ele>
        <time>2014-04-01T09:17:14Z</time>
      </trkpt>
      <trkpt lat="44.45619" lon="1.29404">
        <ele>249.768</ele>
        <time>2014-04-01T09:17:16Z</time>
      </trkpt>
      <trkpt lat="44.4563" lon="1.29373">
        <ele>250.618</ele>
        <time>2014-04-01T09:17:23Z</time>
      </trkpt>
      <trkpt lat="44.45641" lon="1.29369">
        <ele>250.697</ele>
        <time>2014-04-01T09:17:27Z</time>
      </trkpt>
      <trkpt lat="44.45651" lon="1.29371">
        <ele>250.347</ele>
        <time>2014-04-01T09:17:30Z</time>
      </trkpt>
      <trkpt lat="44.45666" lon="1.29376">
        <ele>250.647</ele>
        <time>2014-04-01T09:17:34Z</time>
      </trkpt>
      <trkpt lat="44.45689" lon="1.29377">
        <ele>251.818</ele>
        <time>2014-04-01T09:17:41Z</time>
      </trkpt>
      <trkpt lat="44.45708" lon="1.29374">
        <ele>252.387</ele>
        <time>2014-04-01T09:17:47Z</time>
      </trkpt>
      <trkpt lat="44.45716" lon="1.29358">
        <ele>252.657</ele>
        <time>2014-04-01T09:17:51Z</time>
      </trkpt>
      <trkpt lat="44.45719" lon="1.29343">
        <ele>252.237</ele>
        <time>2014-04-01T09:17:54Z</time>
      </trkpt>
      <trkpt lat="44.45731" lon="1.29328">
        <ele>251.648</ele>
        <time>2014-04-01T09:17:58Z</time>
      </trkpt>
      <trkpt lat="44.45747" lon="1.2933">
        <ele>251.958</ele>
        <time>2014-04-01T09:18:02Z</time>
      </trkpt>
      <trkpt lat="44.45755" lon="1.29322">
        <ele>252.298</ele>
        <time>2014-04-01T09:18:05Z</time>
      </trkpt>
      <trkpt lat="44.45761" lon="1.2933">
        <ele>252.999</ele>
        <time>2014-04-01T09:18:08Z</time>
      </trkpt>
      <trkpt lat="44.45764" lon="1.29338">
        <ele>253.308</ele>
        <time>2014-04-01T09:18:10Z</time>
      </trkpt>
      <trkpt lat="44.45772" lon="1.29352">
        <ele>253.147</ele>
        <time>2014-04-01T09:18:14Z</time>
      </trkpt>
      <trkpt lat="44.45787" lon="1.29347">
        <ele>252.918</ele>
        <time>2014-04-01T09:18:18Z</time>
      </trkpt>
      <trkpt lat="44.45802" lon="1.29344">
        <ele>252.868</ele>
        <time>2014-04-01T09:18:22Z</time>
      </trkpt>
      <trkpt lat="44.45806" lon="1.29346">
        <ele>252.848</ele>
        <time>2014-04-01T09:18:23Z</time>
      </trkpt>
      <trkpt lat="44.45827" lon="1.29349">
        <ele>253.098</ele>
        <time>2014-04-01T09:18:28Z</time>
      </trkpt>
      <trkpt lat="44.45847" lon="1.29344">
        <ele>253.869</ele>
        <time>2014-04-01T09:18:33Z</time>
      </trkpt>
      <trkpt lat="44.45863" lon="1.29347">
        <ele>254.569</ele>
        <time>2014-04-01T09:18:37Z</time>
      </trkpt>
      <trkpt lat="44.45881" lon="1.29357">
        <ele>255.779</ele>
        <time>2014-04-01T09:18:42Z</time>
      </trkpt>
      <trkpt lat="44.45888" lon="1.29359">
        <ele>256.119</ele>
        <time>2014-04-01T09:18:44Z</time>
      </trkpt>
      <trkpt lat="44.45899" lon="1.29367">
        <ele>256.678</ele>
        <time>2014-04-01T09:18:48Z</time>
      </trkpt>
      <trkpt lat="44.45913" lon="1.29372">
        <ele>257.249</ele>
        <time>2014-04-01T09:18:52Z</time>
      </trkpt>
      <trkpt lat="44.45926" lon="1.29371">
        <ele>257.77</ele>
        <time>2014-04-01T09:18:56Z</time>
      </trkpt>
      <trkpt lat="44.45933" lon="1.29378">
        <ele>257.849</ele>
        <time>2014-04-01T09:18:59Z</time>
      </trkpt>
      <trkpt lat="44.45941" lon="1.29403">
        <ele>257.879</ele>
        <time>2014-04-01T09:19:06Z</time>
      </trkpt>
      <trkpt lat="44.45946" lon="1.29414">
        <ele>257.538</ele>
        <time>2014-04-01T09:19:10Z</time>
      </trkpt>
      <trkpt lat="44.45948" lon="1.29414">
        <ele>257.287</ele>
        <time>2014-04-01T09:19:13Z</time>
      </trkpt>
    </trkseg>
  </trk>
</gpx>